sensor_id;sensor_type;location;lat;lon;timestamp;P1;durP1;ratioP1;P2;durP2;ratioP2
19944;SDS011;10134;50.952;6.930;2023-04-28T00:01:51;4.72;;;3.05;;
19944;SDS011;10134;50.952;6.930;2023-04-28T00:04:19;6.03;;;3.00;;
19944;SDS011;10134;50.952;6.930;2023-04-28T00:06:47;7.45;;;3.03;;
19944;SDS011;10134;50.952;6.930;2023-04-28T00:09:14;5.93;;;2.83;;
19944;SDS011;10134;50.952;6.930;2023-04-28T00:11:43;6.70;;;2.78;;
19944;SDS011;10134;50.952;6.930;2023-04-28T00:14:11;3.88;;;2.38;;
19944;SDS011;10134;50.952;6.930;2023-04-28T00:16:39;4.97;;;3.58;;
19944;SDS011;10134;50.952;6.930;2023-04-28T00:19:07;4.82;;;2.85;;
19944;SDS011;10134;50.952;6.930;2023-04-28T00:21:35;5.03;;;2.72;;
19944;SDS011;10134;50.952;6.930;2023-04-28T00:24:02;9.38;;;3.10;;
19944;SDS011;10134;50.952;6.930;2023-04-28T00:26:29;4.80;;;2.60;;
19944;SDS011;10134;50.952;6.930;2023-04-28T00:28:57;3.67;;;2.85;;
19944;SDS011;10134;50.952;6.930;2023-04-28T00:31:24;4.57;;;3.20;;
19944;SDS011;10134;50.952;6.930;2023-04-28T00:33:51;8.20;;;3.95;;
19944;SDS011;10134;50.952;6.930;2023-04-28T00:36:24;8.10;;;2.92;;
19944;SDS011;10134;50.952;6.930;2023-04-28T00:38:53;6.65;;;3.30;;
19944;SDS011;10134;50.952;6.930;2023-04-28T00:41:20;6.55;;;3.13;;
19944;SDS011;10134;50.952;6.930;2023-04-28T00:43:48;5.82;;;3.00;;
19944;SDS011;10134;50.952;6.930;2023-04-28T00:46:19;6.70;;;3.15;;
19944;SDS011;10134;50.952;6.930;2023-04-28T00:48:49;6.40;;;2.80;;
19944;SDS011;10134;50.952;6.930;2023-04-28T00:51:17;5.22;;;2.80;;
19944;SDS011;10134;50.952;6.930;2023-04-28T00:53:44;6.00;;;2.45;;
19944;SDS011;10134;50.952;6.930;2023-04-28T00:56:11;6.20;;;3.75;;
19944;SDS011;10134;50.952;6.930;2023-04-28T00:58:39;6.80;;;3.13;;
19944;SDS011;10134;50.952;6.930;2023-04-28T01:01:08;8.93;;;3.05;;
19944;SDS011;10134;50.952;6.930;2023-04-28T01:03:37;5.72;;;3.60;;
19944;SDS011;10134;50.952;6.930;2023-04-28T01:06:07;9.18;;;3.33;;
19944;SDS011;10134;50.952;6.930;2023-04-28T01:08:37;3.25;;;2.60;;
19944;SDS011;10134;50.952;6.930;2023-04-28T01:11:09;3.85;;;2.85;;
19944;SDS011;10134;50.952;6.930;2023-04-28T01:13:55;4.65;;;3.30;;
19944;SDS011;10134;50.952;6.930;2023-04-28T01:16:26;5.57;;;3.15;;
19944;SDS011;10134;50.952;6.930;2023-04-28T01:18:54;5.72;;;3.20;;
19944;SDS011;10134;50.952;6.930;2023-04-28T01:21:31;6.85;;;3.83;;
19944;SDS011;10134;50.952;6.930;2023-04-28T01:24:07;8.90;;;3.63;;
19944;SDS011;10134;50.952;6.930;2023-04-28T01:26:34;5.90;;;3.70;;
19944;SDS011;10134;50.952;6.930;2023-04-28T01:29:01;4.45;;;2.95;;
19944;SDS011;10134;50.952;6.930;2023-04-28T01:31:29;6.28;;;3.22;;
19944;SDS011;10134;50.952;6.930;2023-04-28T01:33:57;8.13;;;3.88;;
19944;SDS011;10134;50.952;6.930;2023-04-28T01:36:24;5.38;;;3.67;;
19944;SDS011;10134;50.952;6.930;2023-04-28T01:38:54;9.15;;;3.67;;
19944;SDS011;10134;50.952;6.930;2023-04-28T01:41:21;11.52;;;4.28;;
19944;SDS011;10134;50.952;6.930;2023-04-28T01:43:49;6.20;;;3.58;;
19944;SDS011;10134;50.952;6.930;2023-04-28T01:46:17;7.88;;;3.50;;
19944;SDS011;10134;50.952;6.930;2023-04-28T01:48:44;7.90;;;3.65;;
19944;SDS011;10134;50.952;6.930;2023-04-28T01:51:12;4.35;;;3.42;;
19944;SDS011;10134;50.952;6.930;2023-04-28T01:53:40;6.47;;;3.58;;
19944;SDS011;10134;50.952;6.930;2023-04-28T01:56:07;6.47;;;3.45;;
19944;SDS011;10134;50.952;6.930;2023-04-28T01:58:35;6.53;;;4.30;;
19944;SDS011;10134;50.952;6.930;2023-04-28T02:01:04;6.47;;;3.33;;
19944;SDS011;10134;50.952;6.930;2023-04-28T02:03:32;8.18;;;4.00;;
19944;SDS011;10134;50.952;6.930;2023-04-28T02:06:01;7.03;;;3.45;;
19944;SDS011;10134;50.952;6.930;2023-04-28T02:08:29;6.28;;;3.58;;
19944;SDS011;10134;50.952;6.930;2023-04-28T02:10:57;5.25;;;3.40;;
19944;SDS011;10134;50.952;6.930;2023-04-28T02:13:24;9.32;;;4.13;;
19944;SDS011;10134;50.952;6.930;2023-04-28T02:15:52;6.07;;;3.83;;
19944;SDS011;10134;50.952;6.930;2023-04-28T02:18:20;6.57;;;3.45;;
19944;SDS011;10134;50.952;6.930;2023-04-28T02:20:47;8.57;;;4.03;;
19944;SDS011;10134;50.952;6.930;2023-04-28T02:23:14;6.25;;;3.92;;
19944;SDS011;10134;50.952;6.930;2023-04-28T02:25:42;6.13;;;4.40;;
19944;SDS011;10134;50.952;6.930;2023-04-28T02:28:11;8.25;;;3.65;;
19944;SDS011;10134;50.952;6.930;2023-04-28T02:30:39;5.45;;;3.90;;
19944;SDS011;10134;50.952;6.930;2023-04-28T02:33:07;7.90;;;3.90;;
19944;SDS011;10134;50.952;6.930;2023-04-28T02:35:34;5.82;;;3.70;;
19944;SDS011;10134;50.952;6.930;2023-04-28T02:38:01;12.85;;;4.93;;
19944;SDS011;10134;50.952;6.930;2023-04-28T02:40:29;7.65;;;4.25;;
19944;SDS011;10134;50.952;6.930;2023-04-28T02:42:56;7.35;;;4.20;;
19944;SDS011;10134;50.952;6.930;2023-04-28T02:45:23;8.52;;;3.97;;
19944;SDS011;10134;50.952;6.930;2023-04-28T02:47:51;11.35;;;5.13;;
19944;SDS011;10134;50.952;6.930;2023-04-28T02:50:18;8.23;;;4.80;;
19944;SDS011;10134;50.952;6.930;2023-04-28T02:52:46;7.15;;;4.13;;
19944;SDS011;10134;50.952;6.930;2023-04-28T02:55:15;9.57;;;4.65;;
19944;SDS011;10134;50.952;6.930;2023-04-28T02:57:50;7.57;;;4.07;;
19944;SDS011;10134;50.952;6.930;2023-04-28T03:00:17;6.43;;;4.00;;
19944;SDS011;10134;50.952;6.930;2023-04-28T03:02:47;6.55;;;3.80;;
19944;SDS011;10134;50.952;6.930;2023-04-28T03:05:14;6.28;;;3.83;;
19944;SDS011;10134;50.952;6.930;2023-04-28T03:07:42;7.88;;;4.43;;
19944;SDS011;10134;50.952;6.930;2023-04-28T03:10:10;6.40;;;4.30;;
19944;SDS011;10134;50.952;6.930;2023-04-28T03:12:37;8.13;;;4.53;;
19944;SDS011;10134;50.952;6.930;2023-04-28T03:15:05;7.38;;;4.60;;
19944;SDS011;10134;50.952;6.930;2023-04-28T03:17:36;8.30;;;4.53;;
19944;SDS011;10134;50.952;6.930;2023-04-28T03:20:05;14.52;;;4.35;;
19944;SDS011;10134;50.952;6.930;2023-04-28T03:22:33;6.72;;;4.15;;
19944;SDS011;10134;50.952;6.930;2023-04-28T03:25:00;6.18;;;4.38;;
19944;SDS011;10134;50.952;6.930;2023-04-28T03:27:32;9.13;;;4.75;;
19944;SDS011;10134;50.952;6.930;2023-04-28T03:30:01;9.57;;;4.43;;
19944;SDS011;10134;50.952;6.930;2023-04-28T03:32:29;7.15;;;4.20;;
19944;SDS011;10134;50.952;6.930;2023-04-28T03:34:56;5.47;;;3.88;;
19944;SDS011;10134;50.952;6.930;2023-04-28T03:37:24;7.00;;;4.32;;
19944;SDS011;10134;50.952;6.930;2023-04-28T03:39:52;7.55;;;4.60;;
19944;SDS011;10134;50.952;6.930;2023-04-28T03:42:19;7.20;;;4.30;;
19944;SDS011;10134;50.952;6.930;2023-04-28T03:45:18;8.07;;;4.50;;
19944;SDS011;10134;50.952;6.930;2023-04-28T03:47:46;5.65;;;3.92;;
19944;SDS011;10134;50.952;6.930;2023-04-28T03:50:13;4.70;;;3.67;;
19944;SDS011;10134;50.952;6.930;2023-04-28T03:52:41;10.25;;;5.47;;
19944;SDS011;10134;50.952;6.930;2023-04-28T03:55:08;6.72;;;4.53;;
19944;SDS011;10134;50.952;6.930;2023-04-28T03:57:36;7.97;;;4.80;;
19944;SDS011;10134;50.952;6.930;2023-04-28T04:00:03;7.70;;;4.07;;
19944;SDS011;10134;50.952;6.930;2023-04-28T04:02:40;9.75;;;4.63;;
19944;SDS011;10134;50.952;6.930;2023-04-28T04:05:08;6.03;;;4.68;;
19944;SDS011;10134;50.952;6.930;2023-04-28T04:07:36;10.20;;;5.68;;
19944;SDS011;10134;50.952;6.930;2023-04-28T04:10:04;6.25;;;4.15;;
19944;SDS011;10134;50.952;6.930;2023-04-28T04:12:34;9.32;;;5.10;;
19944;SDS011;10134;50.952;6.930;2023-04-28T04:15:01;13.00;;;5.57;;
19944;SDS011;10134;50.952;6.930;2023-04-28T04:17:30;8.88;;;5.65;;
19944;SDS011;10134;50.952;6.930;2023-04-28T04:19:57;13.27;;;5.22;;
19944;SDS011;10134;50.952;6.930;2023-04-28T04:22:25;7.90;;;4.70;;
19944;SDS011;10134;50.952;6.930;2023-04-28T04:24:53;8.32;;;4.32;;
19944;SDS011;10134;50.952;6.930;2023-04-28T04:27:21;7.25;;;4.60;;
19944;SDS011;10134;50.952;6.930;2023-04-28T04:29:48;5.90;;;4.53;;
19944;SDS011;10134;50.952;6.930;2023-04-28T04:32:16;12.55;;;4.78;;
19944;SDS011;10134;50.952;6.930;2023-04-28T04:34:43;12.65;;;4.63;;
19944;SDS011;10134;50.952;6.930;2023-04-28T04:37:10;7.20;;;4.72;;
19944;SDS011;10134;50.952;6.930;2023-04-28T04:39:45;7.25;;;4.57;;
19944;SDS011;10134;50.952;6.930;2023-04-28T04:42:13;6.95;;;4.60;;
19944;SDS011;10134;50.952;6.930;2023-04-28T04:45:02;9.18;;;4.90;;
19944;SDS011;10134;50.952;6.930;2023-04-28T04:47:30;8.70;;;4.90;;
19944;SDS011;10134;50.952;6.930;2023-04-28T04:49:57;5.90;;;4.57;;
19944;SDS011;10134;50.952;6.930;2023-04-28T04:52:25;6.40;;;4.30;;
19944;SDS011;10134;50.952;6.930;2023-04-28T04:54:59;7.65;;;4.72;;
19944;SDS011;10134;50.952;6.930;2023-04-28T04:57:27;8.52;;;4.60;;
19944;SDS011;10134;50.952;6.930;2023-04-28T05:00:05;10.77;;;4.43;;
19944;SDS011;10134;50.952;6.930;2023-04-28T05:02:35;11.77;;;4.57;;
19944;SDS011;10134;50.952;6.930;2023-04-28T05:05:04;43.00;;;6.90;;
19944;SDS011;10134;50.952;6.930;2023-04-28T05:07:50;6.05;;;3.75;;
19944;SDS011;10134;50.952;6.930;2023-04-28T05:10:20;13.10;;;4.57;;
19944;SDS011;10134;50.952;6.930;2023-04-28T05:12:47;5.65;;;4.18;;
19944;SDS011;10134;50.952;6.930;2023-04-28T05:15:16;9.40;;;4.32;;
19944;SDS011;10134;50.952;6.930;2023-04-28T05:17:59;7.38;;;4.60;;
19944;SDS011;10134;50.952;6.930;2023-04-28T05:20:27;7.32;;;4.10;;
19944;SDS011;10134;50.952;6.930;2023-04-28T05:22:54;6.32;;;4.65;;
19944;SDS011;10134;50.952;6.930;2023-04-28T05:25:21;8.23;;;4.82;;
19944;SDS011;10134;50.952;6.930;2023-04-28T05:27:49;6.45;;;4.43;;
19944;SDS011;10134;50.952;6.930;2023-04-28T05:30:16;8.98;;;4.45;;
19944;SDS011;10134;50.952;6.930;2023-04-28T05:32:44;9.63;;;5.28;;
19944;SDS011;10134;50.952;6.930;2023-04-28T05:35:11;8.23;;;4.90;;
19944;SDS011;10134;50.952;6.930;2023-04-28T05:37:39;6.50;;;4.68;;
19944;SDS011;10134;50.952;6.930;2023-04-28T05:40:09;6.32;;;4.80;;
19944;SDS011;10134;50.952;6.930;2023-04-28T05:42:36;4.97;;;4.28;;
19944;SDS011;10134;50.952;6.930;2023-04-28T05:45:04;8.57;;;4.45;;
19944;SDS011;10134;50.952;6.930;2023-04-28T05:47:32;6.28;;;4.43;;
19944;SDS011;10134;50.952;6.930;2023-04-28T05:50:00;6.95;;;4.63;;
19944;SDS011;10134;50.952;6.930;2023-04-28T05:52:27;9.70;;;4.18;;
19944;SDS011;10134;50.952;6.930;2023-04-28T05:54:54;8.15;;;4.75;;
19944;SDS011;10134;50.952;6.930;2023-04-28T05:57:22;11.43;;;5.53;;
19944;SDS011;10134;50.952;6.930;2023-04-28T05:59:49;6.38;;;4.20;;
19944;SDS011;10134;50.952;6.930;2023-04-28T06:02:16;6.07;;;4.60;;
19944;SDS011;10134;50.952;6.930;2023-04-28T06:04:47;10.27;;;5.18;;
19944;SDS011;10134;50.952;6.930;2023-04-28T06:07:15;7.32;;;4.43;;
19944;SDS011;10134;50.952;6.930;2023-04-28T06:09:42;8.23;;;4.45;;
19944;SDS011;10134;50.952;6.930;2023-04-28T06:12:10;6.97;;;5.22;;
19944;SDS011;10134;50.952;6.930;2023-04-28T06:14:39;6.80;;;4.60;;
19944;SDS011;10134;50.952;6.930;2023-04-28T06:17:07;5.57;;;4.13;;
19944;SDS011;10134;50.952;6.930;2023-04-28T06:19:34;8.25;;;4.35;;
19944;SDS011;10134;50.952;6.930;2023-04-28T06:22:01;7.47;;;4.75;;
19944;SDS011;10134;50.952;6.930;2023-04-28T06:24:29;6.80;;;4.93;;
19944;SDS011;10134;50.952;6.930;2023-04-28T06:26:57;7.63;;;4.40;;
19944;SDS011;10134;50.952;6.930;2023-04-28T06:29:26;5.32;;;4.13;;
19944;SDS011;10134;50.952;6.930;2023-04-28T06:31:53;7.97;;;3.83;;
19944;SDS011;10134;50.952;6.930;2023-04-28T06:34:24;5.97;;;4.53;;
19944;SDS011;10134;50.952;6.930;2023-04-28T06:36:59;6.63;;;4.18;;
19944;SDS011;10134;50.952;6.930;2023-04-28T06:39:27;11.07;;;4.85;;
19944;SDS011;10134;50.952;6.930;2023-04-28T06:41:54;6.15;;;4.63;;
19944;SDS011;10134;50.952;6.930;2023-04-28T06:44:24;7.55;;;4.55;;
19944;SDS011;10134;50.952;6.930;2023-04-28T06:46:52;7.68;;;4.82;;
19944;SDS011;10134;50.952;6.930;2023-04-28T06:49:19;7.10;;;4.72;;
19944;SDS011;10134;50.952;6.930;2023-04-28T06:51:46;8.85;;;4.35;;
19944;SDS011;10134;50.952;6.930;2023-04-28T06:54:14;9.48;;;4.55;;
19944;SDS011;10134;50.952;6.930;2023-04-28T06:56:43;8.07;;;4.72;;
19944;SDS011;10134;50.952;6.930;2023-04-28T06:59:10;9.23;;;5.18;;
19944;SDS011;10134;50.952;6.930;2023-04-28T07:01:37;7.53;;;4.28;;
19944;SDS011;10134;50.952;6.930;2023-04-28T07:04:05;9.05;;;4.70;;
19944;SDS011;10134;50.952;6.930;2023-04-28T07:06:32;7.03;;;4.80;;
19944;SDS011;10134;50.952;6.930;2023-04-28T07:09:00;10.40;;;4.50;;
19944;SDS011;10134;50.952;6.930;2023-04-28T07:11:27;6.13;;;4.22;;
19944;SDS011;10134;50.952;6.930;2023-04-28T07:13:54;6.93;;;4.32;;
19944;SDS011;10134;50.952;6.930;2023-04-28T07:16:22;8.30;;;4.88;;
19944;SDS011;10134;50.952;6.930;2023-04-28T07:18:49;8.00;;;4.72;;
19944;SDS011;10134;50.952;6.930;2023-04-28T07:21:16;8.20;;;4.82;;
19944;SDS011;10134;50.952;6.930;2023-04-28T07:23:44;6.25;;;4.40;;
19944;SDS011;10134;50.952;6.930;2023-04-28T07:26:11;9.05;;;4.88;;
19944;SDS011;10134;50.952;6.930;2023-04-28T07:28:42;8.10;;;5.13;;
19944;SDS011;10134;50.952;6.930;2023-04-28T07:31:10;11.30;;;5.97;;
19944;SDS011;10134;50.952;6.930;2023-04-28T07:33:37;7.13;;;4.75;;
19944;SDS011;10134;50.952;6.930;2023-04-28T07:36:05;7.68;;;4.82;;
19944;SDS011;10134;50.952;6.930;2023-04-28T07:38:33;8.20;;;5.03;;
19944;SDS011;10134;50.952;6.930;2023-04-28T07:41:01;8.52;;;4.68;;
19944;SDS011;10134;50.952;6.930;2023-04-28T07:43:30;6.72;;;4.60;;
19944;SDS011;10134;50.952;6.930;2023-04-28T07:45:57;5.97;;;4.45;;
19944;SDS011;10134;50.952;6.930;2023-04-28T07:48:25;8.48;;;4.32;;
19944;SDS011;10134;50.952;6.930;2023-04-28T07:50:53;8.20;;;4.90;;
19944;SDS011;10134;50.952;6.930;2023-04-28T07:53:20;6.57;;;5.18;;
19944;SDS011;10134;50.952;6.930;2023-04-28T07:55:47;10.88;;;5.18;;
19944;SDS011;10134;50.952;6.930;2023-04-28T07:58:15;8.95;;;5.03;;
19944;SDS011;10134;50.952;6.930;2023-04-28T08:00:42;7.13;;;4.75;;
19944;SDS011;10134;50.952;6.930;2023-04-28T08:03:10;8.52;;;5.38;;
19944;SDS011;10134;50.952;6.930;2023-04-28T08:05:38;11.10;;;5.25;;
19944;SDS011;10134;50.952;6.930;2023-04-28T08:08:05;9.02;;;5.78;;
19944;SDS011;10134;50.952;6.930;2023-04-28T08:10:33;7.32;;;4.57;;
19944;SDS011;10134;50.952;6.930;2023-04-28T08:13:00;9.43;;;5.40;;
19944;SDS011;10134;50.952;6.930;2023-04-28T08:15:29;5.75;;;4.85;;
19944;SDS011;10134;50.952;6.930;2023-04-28T08:17:56;6.78;;;4.63;;
19944;SDS011;10134;50.952;6.930;2023-04-28T08:20:24;6.80;;;5.32;;
19944;SDS011;10134;50.952;6.930;2023-04-28T08:22:51;6.28;;;5.03;;
19944;SDS011;10134;50.952;6.930;2023-04-28T08:25:19;7.20;;;5.03;;
19944;SDS011;10134;50.952;6.930;2023-04-28T08:27:46;8.00;;;5.65;;
19944;SDS011;10134;50.952;6.930;2023-04-28T08:30:13;6.78;;;5.68;;
19944;SDS011;10134;50.952;6.930;2023-04-28T08:32:41;14.77;;;6.15;;
19944;SDS011;10134;50.952;6.930;2023-04-28T08:35:08;5.78;;;4.75;;
19944;SDS011;10134;50.952;6.930;2023-04-28T08:37:36;10.23;;;5.35;;
19944;SDS011;10134;50.952;6.930;2023-04-28T08:40:03;12.23;;;6.07;;
19944;SDS011;10134;50.952;6.930;2023-04-28T08:42:36;9.23;;;6.40;;
19944;SDS011;10134;50.952;6.930;2023-04-28T08:45:03;5.80;;;4.93;;
19944;SDS011;10134;50.952;6.930;2023-04-28T08:47:35;8.13;;;6.20;;
19944;SDS011;10134;50.952;6.930;2023-04-28T08:50:06;9.85;;;5.78;;
19944;SDS011;10134;50.952;6.930;2023-04-28T08:52:35;8.95;;;5.88;;
19944;SDS011;10134;50.952;6.930;2023-04-28T08:55:06;7.47;;;5.22;;
19944;SDS011;10134;50.952;6.930;2023-04-28T08:57:41;9.90;;;5.78;;
19944;SDS011;10134;50.952;6.930;2023-04-28T09:00:10;8.15;;;5.70;;
19944;SDS011;10134;50.952;6.930;2023-04-28T09:02:38;8.18;;;5.45;;
19944;SDS011;10134;50.952;6.930;2023-04-28T09:05:09;9.18;;;6.20;;
19944;SDS011;10134;50.952;6.930;2023-04-28T09:07:38;7.43;;;6.00;;
19944;SDS011;10134;50.952;6.930;2023-04-28T09:10:19;9.52;;;5.72;;
19944;SDS011;10134;50.952;6.930;2023-04-28T09:12:51;11.48;;;6.10;;
19944;SDS011;10134;50.952;6.930;2023-04-28T09:15:27;8.10;;;5.63;;
19944;SDS011;10134;50.952;6.930;2023-04-28T09:18:03;8.20;;;5.07;;
19944;SDS011;10134;50.952;6.930;2023-04-28T09:20:33;9.98;;;6.32;;
19944;SDS011;10134;50.952;6.930;2023-04-28T09:23:15;11.32;;;6.88;;
19944;SDS011;10134;50.952;6.930;2023-04-28T09:26:00;7.85;;;6.10;;
19944;SDS011;10134;50.952;6.930;2023-04-28T09:28:33;12.48;;;7.18;;
19944;SDS011;10134;50.952;6.930;2023-04-28T09:31:01;9.65;;;6.57;;
19944;SDS011;10134;50.952;6.930;2023-04-28T09:33:29;9.82;;;6.78;;
19944;SDS011;10134;50.952;6.930;2023-04-28T09:35:57;9.60;;;5.88;;
19944;SDS011;10134;50.952;6.930;2023-04-28T09:38:24;12.63;;;6.18;;
19944;SDS011;10134;50.952;6.930;2023-04-28T09:40:53;10.10;;;5.88;;
19944;SDS011;10134;50.952;6.930;2023-04-28T09:43:23;12.18;;;6.90;;
19944;SDS011;10134;50.952;6.930;2023-04-28T09:45:55;11.05;;;6.55;;
19944;SDS011;10134;50.952;6.930;2023-04-28T09:48:36;9.63;;;7.18;;
19944;SDS011;10134;50.952;6.930;2023-04-28T09:51:04;10.98;;;6.68;;
19944;SDS011;10134;50.952;6.930;2023-04-28T09:53:33;9.80;;;6.82;;
19944;SDS011;10134;50.952;6.930;2023-04-28T09:56:03;9.85;;;6.40;;
19944;SDS011;10134;50.952;6.930;2023-04-28T09:58:31;10.07;;;6.22;;
19944;SDS011;10134;50.952;6.930;2023-04-28T10:01:00;11.02;;;7.10;;
19944;SDS011;10134;50.952;6.930;2023-04-28T10:03:29;10.23;;;7.00;;
19944;SDS011;10134;50.952;6.930;2023-04-28T10:05:57;8.15;;;6.43;;
19944;SDS011;10134;50.952;6.930;2023-04-28T10:08:25;9.35;;;6.57;;
19944;SDS011;10134;50.952;6.930;2023-04-28T10:10:53;10.57;;;6.70;;
19944;SDS011;10134;50.952;6.930;2023-04-28T10:13:23;9.00;;;6.18;;
19944;SDS011;10134;50.952;6.930;2023-04-28T10:15:51;9.95;;;6.35;;
19944;SDS011;10134;50.952;6.930;2023-04-28T10:18:21;7.80;;;6.10;;
19944;SDS011;10134;50.952;6.930;2023-04-28T10:20:55;9.30;;;6.32;;
19944;SDS011;10134;50.952;6.930;2023-04-28T10:26:14;7.40;;;5.80;;
19944;SDS011;10134;50.952;6.930;2023-04-28T10:28:49;9.95;;;6.53;;
19944;SDS011;10134;50.952;6.930;2023-04-28T10:31:18;8.88;;;6.20;;
19944;SDS011;10134;50.952;6.930;2023-04-28T10:33:49;14.13;;;6.60;;
19944;SDS011;10134;50.952;6.930;2023-04-28T10:39:13;10.88;;;7.00;;
19944;SDS011;10134;50.952;6.930;2023-04-28T10:41:41;9.05;;;6.63;;
19944;SDS011;10134;50.952;6.930;2023-04-28T10:47:04;12.23;;;6.00;;
19944;SDS011;10134;50.952;6.930;2023-04-28T10:58:51;6.68;;;5.25;;
19944;SDS011;10134;50.952;6.930;2023-04-28T11:00:52;11.57;;;6.50;;
19944;SDS011;10134;50.952;6.930;2023-04-28T11:08:58;7.63;;;5.97;;
19944;SDS011;10134;50.952;6.930;2023-04-28T11:11:32;12.63;;;6.88;;
19944;SDS011;10134;50.952;6.930;2023-04-28T11:19:27;7.55;;;5.88;;
19944;SDS011;10134;50.952;6.930;2023-04-28T11:22:00;8.02;;;6.25;;
19944;SDS011;10134;50.952;6.930;2023-04-28T11:24:29;10.02;;;5.85;;
19944;SDS011;10134;50.952;6.930;2023-04-28T11:26:57;7.13;;;5.82;;
19944;SDS011;10134;50.952;6.930;2023-04-28T11:29:32;7.28;;;5.03;;
19944;SDS011;10134;50.952;6.930;2023-04-28T11:32:03;7.53;;;5.45;;
19944;SDS011;10134;50.952;6.930;2023-04-28T11:34:33;8.32;;;5.57;;
19944;SDS011;10134;50.952;6.930;2023-04-28T11:37:01;7.05;;;5.63;;
19944;SDS011;10134;50.952;6.930;2023-04-28T11:39:29;9.48;;;5.32;;
19944;SDS011;10134;50.952;6.930;2023-04-28T11:41:59;8.00;;;5.57;;
19944;SDS011;10134;50.952;6.930;2023-04-28T11:44:29;7.80;;;6.10;;
19944;SDS011;10134;50.952;6.930;2023-04-28T11:46:57;8.85;;;5.72;;
19944;SDS011;10134;50.952;6.930;2023-04-28T11:49:43;7.45;;;5.43;;
19944;SDS011;10134;50.952;6.930;2023-04-28T11:52:11;7.38;;;4.93;;
19944;SDS011;10134;50.952;6.930;2023-04-28T11:54:39;6.80;;;5.10;;
19944;SDS011;10134;50.952;6.930;2023-04-28T11:57:16;6.47;;;5.53;;
19944;SDS011;10134;50.952;6.930;2023-04-28T11:59:44;6.75;;;5.63;;
19944;SDS011;10134;50.952;6.930;2023-04-28T12:02:12;7.32;;;6.20;;
19944;SDS011;10134;50.952;6.930;2023-04-28T12:04:40;7.40;;;5.25;;
19944;SDS011;10134;50.952;6.930;2023-04-28T12:07:10;6.15;;;5.22;;
19944;SDS011;10134;50.952;6.930;2023-04-28T12:09:39;8.32;;;5.82;;
19944;SDS011;10134;50.952;6.930;2023-04-28T12:12:15;7.63;;;5.15;;
19944;SDS011;10134;50.952;6.930;2023-04-28T12:15:15;8.77;;;5.25;;
19944;SDS011;10134;50.952;6.930;2023-04-28T12:17:45;8.30;;;5.95;;
19944;SDS011;10134;50.952;6.930;2023-04-28T12:23:01;7.43;;;5.35;;
19944;SDS011;10134;50.952;6.930;2023-04-28T12:25:28;7.97;;;5.55;;
19944;SDS011;10134;50.952;6.930;2023-04-28T12:27:59;6.65;;;4.93;;
19944;SDS011;10134;50.952;6.930;2023-04-28T12:30:34;7.20;;;5.38;;
19944;SDS011;10134;50.952;6.930;2023-04-28T12:33:04;8.10;;;5.57;;
19944;SDS011;10134;50.952;6.930;2023-04-28T12:35:32;6.32;;;4.82;;
19944;SDS011;10134;50.952;6.930;2023-04-28T12:37:59;5.30;;;4.65;;
19944;SDS011;10134;50.952;6.930;2023-04-28T12:40:26;7.07;;;5.43;;
19944;SDS011;10134;50.952;6.930;2023-04-28T12:42:54;5.65;;;4.82;;
19944;SDS011;10134;50.952;6.930;2023-04-28T12:45:22;7.72;;;4.93;;
19944;SDS011;10134;50.952;6.930;2023-04-28T12:47:51;7.15;;;4.90;;
19944;SDS011;10134;50.952;6.930;2023-04-28T12:50:18;8.48;;;5.22;;
19944;SDS011;10134;50.952;6.930;2023-04-28T12:52:46;6.03;;;4.03;;
19944;SDS011;10134;50.952;6.930;2023-04-28T12:55:13;6.35;;;4.00;;
19944;SDS011;10134;50.952;6.930;2023-04-28T12:57:40;6.50;;;4.93;;
19944;SDS011;10134;50.952;6.930;2023-04-28T13:00:08;6.72;;;4.53;;
19944;SDS011;10134;50.952;6.930;2023-04-28T13:02:36;6.55;;;4.00;;
19944;SDS011;10134;50.952;6.930;2023-04-28T13:05:04;4.47;;;3.25;;
19944;SDS011;10134;50.952;6.930;2023-04-28T13:07:32;5.45;;;3.45;;
19944;SDS011;10134;50.952;6.930;2023-04-28T13:10:00;7.43;;;3.67;;
19944;SDS011;10134;50.952;6.930;2023-04-28T13:12:27;5.40;;;4.05;;
19944;SDS011;10134;50.952;6.930;2023-04-28T13:14:54;6.07;;;3.95;;
19944;SDS011;10134;50.952;6.930;2023-04-28T13:17:21;7.13;;;4.20;;
19944;SDS011;10134;50.952;6.930;2023-04-28T13:19:49;6.95;;;4.05;;
19944;SDS011;10134;50.952;6.930;2023-04-28T13:22:16;4.78;;;4.22;;
19944;SDS011;10134;50.952;6.930;2023-04-28T13:24:44;5.40;;;3.38;;
19944;SDS011;10134;50.952;6.930;2023-04-28T13:27:11;8.18;;;4.15;;
19944;SDS011;10134;50.952;6.930;2023-04-28T13:29:39;4.78;;;3.80;;
19944;SDS011;10134;50.952;6.930;2023-04-28T13:32:06;5.95;;;4.45;;
19944;SDS011;10134;50.952;6.930;2023-04-28T13:34:34;5.68;;;4.03;;
19944;SDS011;10134;50.952;6.930;2023-04-28T13:37:03;7.28;;;5.85;;
19944;SDS011;10134;50.952;6.930;2023-04-28T13:39:30;6.00;;;5.13;;
19944;SDS011;10134;50.952;6.930;2023-04-28T13:41:58;5.32;;;4.65;;
19944;SDS011;10134;50.952;6.930;2023-04-28T13:44:25;5.25;;;4.75;;
19944;SDS011;10134;50.952;6.930;2023-04-28T13:46:53;8.63;;;5.30;;
19944;SDS011;10134;50.952;6.930;2023-04-28T13:49:20;5.45;;;4.80;;
19944;SDS011;10134;50.952;6.930;2023-04-28T13:51:49;5.93;;;5.32;;
19944;SDS011;10134;50.952;6.930;2023-04-28T13:54:16;5.57;;;4.97;;
19944;SDS011;10134;50.952;6.930;2023-04-28T13:56:44;5.15;;;4.32;;
19944;SDS011;10134;50.952;6.930;2023-04-28T13:59:11;4.50;;;4.10;;
19944;SDS011;10134;50.952;6.930;2023-04-28T14:01:39;4.00;;;3.60;;
19944;SDS011;10134;50.952;6.930;2023-04-28T14:04:06;4.88;;;3.30;;
19944;SDS011;10134;50.952;6.930;2023-04-28T14:06:34;8.60;;;3.33;;
19944;SDS011;10134;50.952;6.930;2023-04-28T14:09:02;4.38;;;3.30;;
19944;SDS011;10134;50.952;6.930;2023-04-28T14:11:30;4.32;;;3.42;;
19944;SDS011;10134;50.952;6.930;2023-04-28T14:13:57;3.40;;;2.95;;
19944;SDS011;10134;50.952;6.930;2023-04-28T14:16:25;14.10;;;3.13;;
19944;SDS011;10134;50.952;6.930;2023-04-28T14:18:53;3.33;;;2.10;;
19944;SDS011;10134;50.952;6.930;2023-04-28T14:21:21;10.60;;;7.50;;
19944;SDS011;10134;50.952;6.930;2023-04-28T14:23:48;3.63;;;2.15;;
19944;SDS011;10134;50.952;6.930;2023-04-28T14:26:15;2.65;;;1.83;;
19944;SDS011;10134;50.952;6.930;2023-04-28T14:28:43;3.17;;;2.22;;
19944;SDS011;10134;50.952;6.930;2023-04-28T14:31:10;3.70;;;1.92;;
19944;SDS011;10134;50.952;6.930;2023-04-28T14:33:38;4.00;;;1.42;;
19944;SDS011;10134;50.952;6.930;2023-04-28T14:36:05;2.58;;;1.50;;
19944;SDS011;10134;50.952;6.930;2023-04-28T14:38:33;1.45;;;1.20;;
19944;SDS011;10134;50.952;6.930;2023-04-28T14:41:00;4.93;;;1.10;;
19944;SDS011;10134;50.952;6.930;2023-04-28T14:43:27;2.42;;;0.80;;
19944;SDS011;10134;50.952;6.930;2023-04-28T14:45:55;1.67;;;0.93;;
19944;SDS011;10134;50.952;6.930;2023-04-28T14:48:22;1.17;;;0.60;;
19944;SDS011;10134;50.952;6.930;2023-04-28T14:50:49;3.58;;;0.90;;
19944;SDS011;10134;50.952;6.930;2023-04-28T14:53:17;1.70;;;0.55;;
19944;SDS011;10134;50.952;6.930;2023-04-28T14:55:44;1.85;;;1.17;;
19944;SDS011;10134;50.952;6.930;2023-04-28T14:58:12;2.10;;;0.95;;
19944;SDS011;10134;50.952;6.930;2023-04-28T15:00:39;2.53;;;1.10;;
19944;SDS011;10134;50.952;6.930;2023-04-28T15:03:06;3.20;;;1.38;;
19944;SDS011;10134;50.952;6.930;2023-04-28T15:05:37;2.67;;;0.80;;
19944;SDS011;10134;50.952;6.930;2023-04-28T15:08:05;3.08;;;1.02;;
19944;SDS011;10134;50.952;6.930;2023-04-28T15:10:36;1.80;;;0.80;;
19944;SDS011;10134;50.952;6.930;2023-04-28T15:13:05;4.25;;;2.53;;
19944;SDS011;10134;50.952;6.930;2023-04-28T15:15:33;7.85;;;3.25;;
19944;SDS011;10134;50.952;6.930;2023-04-28T15:18:01;1.13;;;0.73;;
19944;SDS011;10134;50.952;6.930;2023-04-28T15:20:30;1.55;;;1.20;;
19944;SDS011;10134;50.952;6.930;2023-04-28T15:23:02;3.25;;;2.20;;
19944;SDS011;10134;50.952;6.930;2023-04-28T15:25:30;3.10;;;2.30;;
19944;SDS011;10134;50.952;6.930;2023-04-28T15:27:57;4.50;;;3.10;;